Terminal Aerodrome Forecast
Issued by NWS

Home | Current Version | Previous Version | Graphics & Text | Print | Product List | Glossary On
Versions: 1 2 3 4 5 6 7 8 9 10 11 12 13 14 15 16 17 18
000
FTUS43 KBIS 301400 AAB
TAFDIK
TAF AMD
KDIK 301401Z 3014/3112 15014KT P6SM VCFG SCT003
      TEMPO 3014/3015 BKN003
     FM301800 15014KT P6SM SCT070
     FM302300 16015KT 6SM SHRA VCTS BKN050CB
     FM310400 28008KT P6SM BKN100=

USA.gov is the U.S. government's official web portal to all federal, state and local government web resources and services.